KCCA/CCA METAR and TAF weather

Enter ICAO airport designator
Station Type Date Time Source
KCCA METAR 2019/02/21 11:35 UTC NOAA

KCCA 211135Z AUTO 00000KT 10SM CLR M02/M02 A3017 RMK AO2


Station Type Date Time Source
KCCA Decoded METAR 2019/02/21 11:35 UTC NOAA

Station name not available
Feb 21, 2019 - 06:35 AM EST / 2019.02.21 1135 UTC
Wind: Calm:0
Visibility: 10 mile(s):0
Sky conditions: clear
Temperature: 28 F (-2 C)
Dew Point: 28 F (-2 C)
Relative Humidity: 100%
Pressure (altimeter): 30.17 in. Hg (1021 hPa)
ob: KCCA 211135Z AUTO 00000KT 10SM CLR M02/M02 A3017 RMK AO2
cycle: 11

Station Type Date Time Source
KCCA TAF UTC NOAA

Error!


Example: see airport list